Flight Track Log - Related Links

Times and Time Zones

All times are in EST time to prevent confusion due to time zone crossing. See the JBU1269 flight status page for this flight to view local times or setup timezone preferences in your user account.

Time Position Orientation Groundspeed Altitude Reporting Facility
EST Latitude Longitude Course Direction KTS MPH feet Rate Location/Type
Sun 10:34:52 PM 42.3500 -70.9833 124° Southeast 154 177 700  Level KA90
Sun 10:36:10 PM 42.3167 -70.9167 124° Southeast 199 229 3,300 2,043 Climbing KA90
Sun 10:37:13 PM 42.3297 -70.8325 78° East 257 296 5,500 2,311 Climbing Boston Center
Sun 10:38:12 PM 42.3136 -70.7389 103° East 263 303 8,000 2,450 Climbing Boston Center
Sun 10:39:13 PM 42.2636 -70.6697 134° Southeast 270 311 10,400 1,869 Climbing Boston Center
Sun 10:40:14 PM 42.1869 -70.6336 161° South 289 333 11,800 1,785 Climbing Boston Center
Sun 10:41:14 PM 42.1003 -70.6322 179° South 322 371 14,000 2,361 Climbing Boston Center
Sun 10:42:16 PM 42.0147 -70.6697 198° South 328 377 16,600 2,132 Climbing Boston Center
Sun 10:43:15 PM 41.9289 -70.7081 198° South 327 376 18,300 1,900 Climbing Boston Center
Sun 10:44:16 PM 41.8394 -70.7481 198° South 338 389 20,400 2,016 Climbing Boston Center
Sun 10:45:17 PM 41.7556 -70.8092 209° Southwest 344 396 22,400 1,835 Climbing Boston Center
Sun 10:46:17 PM 41.6553 -70.8833 209° Southwest 346 398 24,100 1,500 Climbing Boston Center
Sun 10:47:21 PM 41.5694 -70.9481 209° Southwest 355 409 25,500 1,355 Climbing Boston Center
Sun 10:48:21 PM 41.4978 -71.0436 225° Southwest 362 417 26,900 1,289 Climbing Boston Center
Sun 10:49:22 PM 41.4350 -71.1464 231° Southwest 360 414 28,100 1,289 Climbing Boston Center
Sun 10:50:22 PM 41.3731 -71.2469 231° Southwest 364 419 29,500 1,350 Climbing Boston Center
Sun 10:51:22 PM 41.3094 -71.3483 230° Southwest 358 412 30,800 1,311 Climbing Boston Center
Sun 10:52:21 PM 41.2453 -71.4519 231° Southwest 351 404 32,100 1,140 Climbing Boston Center
Sun 10:53:23 PM 41.1844 -71.5492 230° Southwest 344 396 33,100 934 Climbing Boston Center
Sun 10:54:23 PM 41.1403 -71.6567 241° Southwest 343 395 34,000 439 Climbing Boston Center
Sun 10:55:26 PM 41.1019 -71.7744 247° West 347 399 34,000  Level Boston Center
Sun 10:56:27 PM 41.0608 -71.8953 246° West 359 413 34,000 446 Level Boston Center
Sun 10:57:27 PM 40.9953 -72.0147 234° Southwest 358 412 34,900 694 Climbing Boston Center
Sun 10:58:28 PM 40.9228 -72.1022 222° Southwest 354 407 35,400 496 Climbing Boston Center
Sun 10:59:28 PM 40.8517 -72.1917 224° Southwest 354 407 35,900 298 Climbing Boston Center
Sun 11:00:29 PM 40.7794 -72.2814 223° Southwest 356 410 36,000 50 Climbing Boston Center
Sun 11:01:28 PM 40.7058 -72.3717 223° Southwest 357 411 36,000  Level Boston Center
Sun 11:02:30 PM 40.6331 -72.4608 223° Southwest 359 413 36,000  Level Boston Center
Sun 11:03:28 PM 40.5617 -72.5500 224° Southwest 355 409 36,000  Level Boston Center
Sun 11:04:32 PM 40.4894 -72.6381 223° Southwest 355 409 36,000  Level Boston Center
Sun 11:05:32 PM 40.4175 -72.7269 223° Southwest 355 409 36,000  Level Boston Center
Sun 11:06:33 PM 40.3447 -72.8144 223° Southwest 355 409 36,000  Level Boston Center
Sun 11:07:33 PM 40.2722 -72.9031 223° Southwest 355 409 36,000  Level Boston Center
Sun 11:08:32 PM 40.1919 -73.0006 223° Southwest 351 404 36,000  Level Boston Center
Sun 11:09:34 PM 40.1192 -73.0869 222° Southwest 352 405 36,000  Level Boston Center
Sun 11:10:17 PM 40.0758 -73.1378 222° Southwest 370 426 36,000  Level Washington Center
Sun 11:11:14 PM 40.0025 -73.2269 223° Southwest 365 420 36,000  Level Washington Center
Sun 11:12:15 PM 39.9292 -73.3133 222° Southwest 360 414 36,000  Level Washington Center
Sun 11:13:16 PM 39.8581 -73.4022 224° Southwest 360 414 36,000  Level Washington Center
Sun 11:14:17 PM 39.7783 -73.4936 221° Southwest 360 414 36,000  Level Washington Center
Sun 11:15:17 PM 39.7047 -73.5767 221° Southwest 360 414 36,000  Level Washington Center
Sun 11:16:15 PM 39.6333 -73.6650 224° Southwest 360 414 36,000  Level Washington Center
Sun 11:17:16 PM 39.5597 -73.7506 222° Southwest 360 414 36,000  Level Washington Center
Sun 11:18:14 PM 39.4881 -73.8356 222° Southwest 360 414 36,000  Level Washington Center
Sun 11:19:17 PM 39.4164 -73.9181 222° Southwest 360 414 36,000  Level Washington Center
Sun 11:20:15 PM 39.3444 -74.0056 223° Southwest 360 414 36,000  Level Washington Center
Sun 11:21:16 PM 39.2706 -74.0903 222° Southwest 355 409 36,000  Level Washington Center
Sun 11:22:14 PM 39.1967 -74.1747 222° Southwest 360 414 36,000  Level Washington Center
Sun 11:23:15 PM 39.1247 -74.2592 222° Southwest 360 414 36,000  Level Washington Center
Sun 11:24:15 PM 39.0506 -74.3433 221° Southwest 360 414 36,000  Level Washington Center
Sun 11:25:15 PM 38.9928 -74.4111 222° Southwest 360 414 36,000  Level Washington Center
Sun 11:26:16 PM 38.9167 -74.5006 222° Southwest 360 414 36,000  Level Washington Center
Sun 11:27:17 PM 38.8422 -74.5842 221° Southwest 360 414 36,000  Level Washington Center
Sun 11:28:17 PM 38.7658 -74.6706 221° Southwest 360 414 36,000  Level Washington Center
Sun 11:29:15 PM 38.6933 -74.7539 222° Southwest 360 414 36,000  Level Washington Center
Sun 11:30:16 PM 38.6106 -74.8267 214° Southwest 360 414 36,000  Level Washington Center
Sun 11:31:17 PM 38.5233 -74.8964 212° Southwest 365 420 36,000  Level Washington Center
Sun 11:32:14 PM 38.4361 -74.9608 210° Southwest 370 426 36,000  Level Washington Center
Sun 11:33:15 PM 38.3489 -75.0253 210° Southwest 370 426 36,000  Level Washington Center
Sun 11:34:15 PM 38.2658 -75.0892 211° Southwest 365 420 36,000  Level Washington Center
Sun 11:35:17 PM 38.1806 -75.1558 212° Southwest 365 420 36,000  Level Washington Center
Sun 11:36:15 PM 38.0933 -75.2222 211° Southwest 365 420 36,000  Level Washington Center
Sun 11:37:15 PM 38.0058 -75.2861 210° Southwest 365 420 36,000  Level Washington Center
Sun 11:38:15 PM 37.9164 -75.3497 209° Southwest 365 420 36,000  Level Washington Center
Sun 11:39:15 PM 37.8308 -75.4183 212° Southwest 365 420 36,000  Level Washington Center
Sun 11:40:15 PM 37.7433 -75.4814 210° Southwest 365 420 36,000  Level Washington Center
Sun 11:41:16 PM 37.6581 -75.5472 211° Southwest 365 420 36,000  Level Washington Center
Sun 11:42:16 PM 37.5683 -75.6103 209° Southwest 365 420 36,000  Level Washington Center
Sun 11:43:17 PM 37.4806 -75.6756 211° Southwest 365 420 36,000  Level Washington Center
Sun 11:44:15 PM 37.3908 -75.7408 210° Southwest 370 426 36,000  Level Washington Center
Sun 11:45:17 PM 37.3053 -75.8061 211° Southwest 370 426 36,000  Level Washington Center
Sun 11:46:15 PM 37.2175 -75.8683 209° Southwest 370 426 36,000  Level Washington Center
Sun 11:47:17 PM 37.1297 -75.9331 210° Southwest 370 426 36,000  Level Washington Center
Sun 11:48:17 PM 37.0442 -75.9978 211° Southwest 370 426 36,000  Level Washington Center
Sun 11:49:15 PM 36.9417 -76.0675 209° Southwest 371 427 36,000  Level Washington Center
Sun 11:50:14 PM 36.8536 -76.1292 209° Southwest 377 434 36,000  Level Washington Center
Sun 11:51:16 PM 36.7658 -76.1933 210° Southwest 377 434 36,000  Level Washington Center
Sun 11:52:16 PM 36.6778 -76.2600 211° Southwest 382 440 36,000  Level Washington Center
Sun 11:53:14 PM 36.5878 -76.3242 210° Southwest 382 440 36,000  Level Washington Center
Sun 11:54:15 PM 36.4997 -76.3853 209° Southwest 377 434 36,000  Level Washington Center
Sun 11:55:17 PM 36.4117 -76.4489 210° Southwest 377 434 36,000  Level Washington Center
Sun 11:56:17 PM 36.3236 -76.5122 210° Southwest 377 434 36,000  Level Washington Center
Sun 11:57:17 PM 36.2356 -76.5731 209° Southwest 377 434 36,000  Level Washington Center
Sun 11:58:14 PM 36.1453 -76.6364 210° Southwest 377 434 36,000  Level Washington Center
Sun 11:59:16 PM 36.0550 -76.6994 209° Southwest 382 440 36,000  Level Washington Center
Mon 12:00:14 AM 35.9667 -76.7622 210° Southwest 382 440 36,000  Level Washington Center
Mon 12:01:15 AM 35.8764 -76.8250 209° Southwest 382 440 36,000  Level Washington Center
Mon 12:02:15 AM 35.7839 -76.8875 209° Southwest 382 440 36,000  Level Washington Center
Mon 12:03:14 AM 35.6978 -76.9528 212° Southwest 382 440 36,000  Level Washington Center
Mon 12:04:16 AM 35.6094 -77.0125 209° Southwest 375 432 36,000  Level Washington Center
Mon 12:05:17 AM 35.5189 -77.0772 210° Southwest 375 432 36,000  Level Washington Center
Mon 12:06:17 AM 35.4303 -77.1394 210° Southwest 375 432 36,000  Level Washington Center
Mon 12:07:16 AM 35.3397 -77.2011 209° Southwest 375 432 36,000  Level Washington Center
Mon 12:08:17 AM 35.2514 -77.2606 209° Southwest 375 432 36,000  Level Washington Center
Mon 12:09:17 AM 35.1628 -77.3222 210° Southwest 375 432 36,000  Level Washington Center
Mon 12:10:15 AM 35.0744 -77.3811 209° Southwest 375 432 36,000  Level Washington Center
Mon 12:11:17 AM 34.9858 -77.4428 210° Southwest 375 432 36,000  Level Washington Center
Mon 12:12:14 AM 34.8972 -77.5039 209° Southwest 375 432 36,000  Level Washington Center
Mon 12:13:17 AM 34.8169 -77.5628 211° Southwest 375 432 36,000  Level Washington Center
Mon 12:14:15 AM 34.7283 -77.6214 209° Southwest 375 432 36,000  Level Washington Center
Mon 12:15:16 AM 34.6375 -77.6822 209° Southwest 375 432 36,000  Level Washington Center
Mon 12:16:17 AM 34.5489 -77.7456 210° Southwest 380 437 36,000  Level Washington Center
Mon 12:17:16 AM 34.4581 -77.8061 209° Southwest 380 437 36,000  Level Washington Center
Mon 12:18:14 AM 34.3672 -77.8689 210° Southwest 380 437 36,000  Level Washington Center
Mon 12:20:24 AM 34.1231 -77.9386 193° South 417 480 36,000  Level Jacksonville Center
Mon 12:21:24 AM 34.0158 -77.9697 194° South 417 480 36,000  Level Jacksonville Center
Mon 12:22:24 AM 33.9106 -78.0006 194° South 404 465 36,000  Level Jacksonville Center
Mon 12:23:24 AM 33.8014 -78.0342 194° South 407 468 36,000  Level Jacksonville Center
Mon 12:24:24 AM 33.6939 -78.0625 192° South 402 463 36,000  Level Jacksonville Center
Mon 12:25:24 AM 33.5847 -78.0983 195° South 407 468 36,000  Level Jacksonville Center
Mon 12:26:24 AM 33.4753 -78.1292 193° South 407 468 36,000  Level Jacksonville Center
Mon 12:27:24 AM 33.3781 -78.1544 192° South 407 468 36,000  Level Jacksonville Center
Mon 12:28:24 AM 33.2731 -78.1872 195° South 407 468 36,000  Level Jacksonville Center
Mon 12:29:24 AM 33.1633 -78.2156 192° South 407 468 36,000  Level Jacksonville Center
Mon 12:30:24 AM 33.0539 -78.2458 193° South 413 475 36,000  Level Jacksonville Center
Mon 12:31:24 AM 32.9422 -78.2764 193° South 413 475 36,000  Level Jacksonville Center
Mon 12:32:24 AM 32.8225 -78.3122 194° South 413 475 36,000  Level Jacksonville Center
Mon 12:33:24 AM 32.7108 -78.3425 193° South 413 475 36,000  Level Jacksonville Center
Mon 12:34:24 AM 32.6014 -78.3753 194° South 413 475 36,000  Level Jacksonville Center
Mon 12:35:24 AM 32.4919 -78.4053 193° South 413 475 36,000  Level Jacksonville Center
Mon 12:36:24 AM 32.4050 -78.4267 192° South 413 475 36,000  Level Jacksonville Center
Mon 12:37:24 AM 32.2875 -78.4669 196° South 408 470 36,000  Level Jacksonville Center
Mon 12:38:24 AM 32.1781 -78.4992 194° South 408 470 36,000  Level Jacksonville Center
Mon 12:39:24 AM 32.0683 -78.5289 193° South 408 470 36,000  Level Jacksonville Center
Mon 12:40:24 AM 31.9589 -78.5611 194° South 413 475 36,000  Level Jacksonville Center
Mon 12:41:24 AM 31.8472 -78.5933 194° South 413 475 36,000  Level Jacksonville Center
Mon 12:42:24 AM 31.7375 -78.6228 193° South 413 475 36,000  Level Jacksonville Center
Mon 12:43:24 AM 31.6281 -78.6547 194° South 408 470 36,000  Level Jacksonville Center
Mon 12:44:24 AM 31.5042 -78.6944 195° South 417 480 36,000  Level Jacksonville Center
Mon 12:45:24 AM 31.3925 -78.7239 193° South 420 483 36,000  Level Jacksonville Center
Mon 12:46:24 AM 31.2806 -78.7531 193° South 414 476 36,000  Level Jacksonville Center
Mon 12:47:24 AM 31.1692 -78.7894 196° South 414 476 36,000  Level Jacksonville Center
Mon 12:48:24 AM 31.0572 -78.8186 193° South 414 476 36,000  Level Jacksonville Center
Mon 12:49:24 AM 30.9536 -78.8450 192° South 415 478 36,000  Level Jacksonville Center
Mon 12:50:24 AM 30.8442 -78.8786 195° South 415 478 36,000  Level Jacksonville Center
Mon 12:52:26 AM 30.6089 -78.9422 193° South 416 479 36,000  Level Miami Center
Mon 12:53:25 AM 30.5003 -78.9761 195° South 416 479 36,000  Level Miami Center
Mon 12:54:25 AM 30.3767 -79.0072 192° South 421 484 36,000  Level Miami Center
Mon 12:55:25 AM 30.2719 -79.0364 194° South 421 484 36,000  Level Miami Center
Mon 12:56:24 AM 30.1528 -79.0650 192° South 421 484 36,000  Level Miami Center
Mon 12:57:23 AM 30.0378 -79.0964 193° South 421 484 36,000  Level Miami Center
Mon 12:58:27 AM 29.9244 -79.1369 197° South 427 491 36,000  Level Miami Center
Mon 12:59:26 AM 29.8114 -79.1658 193° South 427 491 36,000  Level Miami Center
Mon 01:00:26 AM 29.6942 -79.1894 190° South 427 491 36,000  Level Miami Center
Mon 01:01:24 AM 29.5811 -79.2228 194° South 429 494 36,000  Level Miami Center
Mon 01:02:25 AM 29.4700 -79.2586 196° South 429 494 36,000  Level Miami Center
Mon 01:03:24 AM 29.3464 -79.2822 189° South 436 502 36,000  Level Miami Center
Mon 01:04:26 AM 29.2272 -79.3081 191° South 436 502 36,000  Level Miami Center
Mon 01:05:26 AM 29.1097 -79.3339 191° South 423 487 36,000  Level Miami Center
Mon 01:06:25 AM 28.9967 -79.3669 194° South 428 493 36,000  Level Miami Center
Mon 01:07:26 AM 28.8772 -79.3950 192° South 435 501 36,000  Level Miami Center
Mon 01:08:23 AM 28.7578 -79.4231 192° South 435 501 36,000  Level Miami Center
Mon 01:09:23 AM 28.6364 -79.4464 190° South 435 501 36,000  Level Miami Center
Mon 01:10:25 AM 28.5189 -79.4697 190° South 435 501 36,000  Level Miami Center
Mon 01:11:24 AM 28.3997 -79.4906 189° South 435 501 36,000  Level Miami Center
Mon 01:12:24 AM 28.2761 -79.5111 188° South 435 501 36,000  Level Miami Center
Mon 01:13:25 AM 28.1525 -79.5317 188° South 441 507 36,000  Level Miami Center
Mon 01:14:24 AM 28.0333 -79.5525 189° South 446 513 36,000 -50 Level Miami Center
Mon 01:15:25 AM 27.9097 -79.5756 189° South 451 519 35,900 -958 Descending Miami Center
Mon 01:16:23 AM 27.8050 -79.5942 189° South 439 505 34,100 -2,288 Descending Miami Center
Mon 01:17:23 AM 27.6708 -79.6189 189° South 439 505 31,400 -2,390 Descending Miami Center
Mon 01:18:26 AM 27.5494 -79.6394 189° South 444 511 29,200 -2,146 Descending Miami Center
Mon 01:19:26 AM 27.4342 -79.6578 188° South 438 504 27,000 -2,085 Descending Miami Center
Mon 01:20:24 AM 27.3336 -79.6764 189° South 426 490 25,100 -2,136 Descending Miami Center
Mon 01:21:24 AM 27.2225 -79.6969 189° South 408 470 22,800 -2,281 Descending Miami Center
Mon 01:22:25 AM 27.1008 -79.7175 189° South 403 464 20,500 -2,132 Descending Miami Center
Mon 01:23:25 AM 26.9983 -79.7358 189° South 392 451 18,500 -1,966 Descending Miami Center
Mon 01:24:24 AM 26.8978 -79.7519 188° South 380 437 16,600 -1,835 Descending Miami Center
Mon 01:25:26 AM 26.8117 -79.7661 188° South 365 420 14,800 -1,815 Descending Miami Center
Mon 01:26:23 AM 26.7069 -79.7844 189° South 352 405 13,000 -1,832 Descending Miami Center
Mon 01:27:01 AM 26.6481 -79.7992 193° South 316 364 11,900 -1,684 Descending Miami Center
Mon 01:27:20 AM 26.6231 -79.8011 184° South 294 338 11,400 -960 Descending Miami Center
Mon 01:27:26 AM 26.6314 -79.7989 13° North 332 382 11,500 -1,525 Climbing Miami Center
Mon 01:28:19 AM 26.5475 -79.8131 189° South 272 313 9,900 -1,627 Descending Miami Center
Mon 01:28:25 AM 26.5456 -79.8131 180° South 297 342 9,900 -1,313 Level Miami Center
Mon 01:29:23 AM 26.4722 -79.8275 190° South 265 305 8,500 -1,279 Descending Miami Center
Mon 01:29:26 AM 26.4783 -79.8253 18° North 275 316 8,600 -577 Climbing Miami Center
Mon 01:30:15 AM 26.4111 -79.8492 198° South 269 310 8,000 -621 Descending Miami Center
Mon 01:30:24 AM 26.4006 -79.8511 189° South 270 311 8,000 -1,065 Level Miami Center
Mon 01:31:17 AM 26.3375 -79.8681 194° South 264 304 6,900 -1,065 Descending Miami Center
Mon 01:31:26 AM 26.3378 -79.8658 82° East 270 311 6,900 -1,500 Level Miami Center
Mon 01:32:17 AM 26.2642 -79.8847 193° South 263 303 5,400 -1,424 Descending Miami Center
Mon 01:32:25 AM 26.2725 -79.8803 26° Northeast 264 304 5,500 -1,556 Climbing Miami Center
Mon 01:33:11 AM 26.2014 -79.8969 192° South 257 296 4,000 -1,729 Descending Miami Center
Mon 01:33:24 AM 26.1992 -79.8969 180° South 258 297 3,800 -1,200 Descending Miami Center
Mon 01:34:11 AM 26.1300 -79.9114 191° South 254 292 2,800 -1,082 Descending Miami Center
Mon 01:34:25 AM 26.1319 -79.9139 311° West 258 297 2,700 -640 Descending Miami Center
Mon 01:35:26 AM 26.0933 -79.9592 226° Southwest 217 250 2,000 -356 Descending Miami Center
Mon 01:36:23 AM 26.0756 -80.0142 250° West 205 236 2,000 -91 Level Miami Center
Mon 01:36:32 AM 26.0750 -80.0350 268° West 186 214 1,900 -701 Descending Miami Center
Mon 01:37:40 AM 26.0742 -80.0833 269° West 132 152 1,100 -714 Descending Miami Center
Mon 01:38:38 AM 26.0753 -80.1250 272° West 138 159 400 -724 Descending Miami Center
Mon 01:40:00 AM 26.0726 -80.1527 277° West  Level Estimated
Mon 01:47:00 AM 26.0726 -80.1527 90° East  Level Estimated
Mon 01:48:00 AM 26.0726 -80.1527 103° East  Level Estimated
Mon 01:49:00 AM 26.0726 -80.1527 90° East  Level Estimated

Login

Don't have an account? Register now (free) for customized features, flight alerts, and more!